Time;durP1;ratioP1;P1;durP2;ratioP2;P2;SDS_P1;SDS_P2;PMS_P1;PMS_P2;Temp;Humidity;BMP_temperature;BMP_pressure;BME280_temperature;BME280_humidity;BME280_pressure;Samples;Min_cycle;Max_cycle;Signal;HPM_P1;HPM_P2
2022/08/14 00:00:13;;;;;;;14.93;6.57;;;;;;;19.96;100.00;98086.19;6224026;23;20004;-95
2022/08/14 00:02:39;;;;;;;16.27;7.38;;;;;;;19.58;100.00;98092.72;6223361;23;20082;-95
2022/08/14 00:05:09;;;;;;;15.35;8.18;;;;;;;19.56;100.00;98091.09;6217169;23;20059;-96
2022/08/14 00:07:35;;;;;;;17.35;8.23;;;;;;;19.52;100.00;98092.22;6221766;23;19993;-94
2022/08/14 00:10:03;;;;;;;15.20;8.15;;;;;;;19.64;100.00;98085.34;6234058;23;20237;-96
2022/08/14 00:12:32;;;;;;;18.70;8.63;;;;;;;19.52;100.00;98084.28;6219012;23;20016;-96
2022/08/14 00:14:57;;;;;;;20.50;9.50;;;;;;;19.55;100.00;98079.66;6213630;23;20009;-96
2022/08/14 00:17:23;;;;;;;17.65;9.52;;;;;;;19.37;100.00;98086.84;6227962;23;20019;-94
2022/08/14 00:19:49;;;;;;;17.90;9.30;;;;;;;19.39;100.00;98082.31;6220662;23;20020;-94
2022/08/14 00:22:17;;;;;;;19.05;9.50;;;;;;;19.96;100.00;98078.25;6223080;23;20052;-96
2022/08/14 00:24:43;;;;;;;20.67;10.15;;;;;;;20.74;100.00;98066.59;6234485;23;20024;-95
2022/08/14 00:27:09;;;;;;;21.83;10.43;;;;;;;20.46;100.00;98058.50;6218522;23;20005;-96
2022/08/14 00:29:35;;;;;;;21.30;10.80;;;;;;;19.59;100.00;98057.38;6215877;23;20069;-96
2022/08/14 00:32:00;;;;;;;22.63;10.27;;;;;;;19.23;100.00;98065.59;6214353;23;20017;-96
2022/08/14 00:34:26;;;;;;;20.92;10.15;;;;;;;19.30;100.00;98069.59;6213593;23;20105;-96
2022/08/14 00:36:51;;;;;;;18.95;10.20;;;;;;;19.48;100.00;98061.59;6214395;23;20223;-96
2022/08/14 00:39:17;;;;;;;19.90;10.35;;;;;;;19.23;100.00;98057.66;6213091;23;20011;-96
2022/08/14 00:41:42;;;;;;;18.42;10.18;;;;;;;19.31;100.00;98060.75;6211896;23;20188;-96
2022/08/14 00:44:08;;;;;;;21.77;10.50;;;;;;;19.16;100.00;98064.25;6213795;23;20004;-96
2022/08/14 00:46:36;;;;;;;19.25;10.82;;;;;;;19.03;100.00;98059.63;6212747;23;20039;-96
2022/08/14 00:49:02;;;;;;;22.05;10.77;;;;;;;19.24;100.00;98065.50;6215183;23;20431;-94
2022/08/14 00:51:31;;;;;;;20.42;10.82;;;;;;;19.23;100.00;98062.94;6212662;23;20015;-95
2022/08/14 00:53:57;;;;;;;19.95;10.90;;;;;;;19.13;100.00;98057.31;6212758;23;20329;-94
2022/08/14 00:56:24;;;;;;;19.65;10.80;;;;;;;19.34;100.00;98063.19;6210733;23;20000;-95
2022/08/14 00:58:50;;;;;;;20.60;10.43;;;;;;;19.23;100.00;98049.75;6211211;23;20000;-95
2022/08/14 01:01:17;;;;;;;19.85;11.70;;;;;;;19.23;100.00;98055.91;6212517;23;20026;-94
2022/08/14 01:03:44;;;;;;;21.17;11.77;;;;;;;19.37;100.00;98056.91;6212899;23;20416;-95
2022/08/14 01:06:14;;;;;;;24.27;12.73;;;;;;;19.39;100.00;98057.69;6213289;23;20025;-96
2022/08/14 01:08:42;;;;;;;22.95;12.10;;;;;;;19.35;100.00;98056.97;6213141;23;20027;-96
2022/08/14 01:11:14;;;;;;;25.02;12.18;;;;;;;19.16;100.00;98051.03;6212552;23;20019;-96
2022/08/14 01:13:42;;;;;;;22.02;12.48;;;;;;;19.19;100.00;98056.13;6212626;23;20008;-96
2022/08/14 01:16:12;;;;;;;28.10;12.73;;;;;;;19.13;100.00;98043.28;6212211;23;20007;-96
2022/08/14 01:21:37;;;;;;;22.38;12.90;;;;;;;18.80;100.00;98046.78;6213342;23;20088;-95
2022/08/14 01:24:09;;;;;;;22.23;12.73;;;;;;;18.84;100.00;98054.44;6212069;23;20324;-96
2022/08/14 01:26:35;;;;;;;25.75;13.70;;;;;;;19.09;100.00;98043.44;6212576;23;20452;-95
2022/08/14 01:29:03;;;;;;;28.05;14.07;;;;;;;18.97;100.00;98040.59;6212095;23;20013;-95
2022/08/14 01:31:33;;;;;;;23.63;13.60;;;;;;;19.08;100.00;98041.72;6212348;23;20015;-94
2022/08/14 01:34:02;;;;;;;28.55;13.40;;;;;;;18.86;100.00;98039.38;6212189;23;20111;-96
2022/08/14 01:36:35;;;;;;;24.38;13.95;;;;;;;18.86;100.00;98041.16;6212315;23;20000;-95
2022/08/14 01:39:03;;;;;;;23.75;13.55;;;;;;;19.54;100.00;98030.34;6212100;23;20017;-94
2022/08/14 01:41:29;;;;;;;25.52;13.77;;;;;;;19.09;100.00;98026.72;6211447;23;20034;-96
2022/08/14 01:44:01;;;;;;;23.95;15.07;;;;;;;19.73;100.00;98013.41;6212812;23;20004;-96
2022/08/14 01:46:33;;;;;;;22.77;13.77;;;;;;;19.82;100.00;98001.47;6211732;23;20544;-94
2022/08/14 01:48:58;;;;;;;27.10;14.30;;;;;;;19.94;100.00;97998.97;6213462;23;20004;-95
2022/08/14 01:51:27;;;;;;;27.92;15.00;;;;;;;19.43;100.00;97999.22;6211890;23;20054;-96
2022/08/14 01:53:59;;;;;;;28.73;15.90;;;;;;;19.38;100.00;98001.28;6211630;23;20011;-95
2022/08/14 01:56:38;;;;;;;25.08;14.73;;;;;;;19.64;100.00;97992.78;6212273;23;20020;-95
2022/08/14 01:59:27;;;;;;;23.60;14.95;;;;;;;19.82;100.00;97993.53;6210233;23;20095;-94
2022/08/14 02:01:55;;;;;;;24.77;15.63;;;;;;;19.54;100.00;97981.88;6208614;23;20016;-96
2022/08/14 02:04:24;;;;;;;30.77;16.20;;;;;;;19.32;100.00;97993.72;6208990;23;20371;-96
2022/08/14 02:06:50;;;;;;;25.02;14.68;;;;;;;19.45;100.00;97984.13;6210049;23;20036;-96
2022/08/14 02:09:17;;;;;;;23.52;14.35;;;;;;;18.86;100.00;97980.38;6213952;23;20000;-96
2022/08/14 02:11:43;;;;;;;27.73;15.15;;;;;;;18.96;100.00;97983.44;6212823;23;20023;-94
2022/08/14 02:14:10;;;;;;;24.73;15.02;;;;;;;18.67;100.00;97997.25;6213555;23;20423;-96
2022/08/14 02:16:42;;;;;;;26.33;14.48;;;;;;;18.52;100.00;97995.44;6212530;23;20008;-95
2022/08/14 02:19:13;;;;;;;23.65;14.13;;;;;;;18.72;100.00;97992.59;6212209;23;20083;-96
2022/08/14 02:21:39;;;;;;;23.42;13.90;;;;;;;18.59;100.00;97991.53;6212814;23;20013;-96
2022/08/14 02:24:05;;;;;;;27.38;15.07;;;;;;;18.78;100.00;97994.03;6212028;23;20000;-96
2022/08/14 02:26:35;;;;;;;24.67;14.82;;;;;;;18.65;100.00;97995.63;6212438;23;20016;-94
2022/08/14 02:29:10;;;;;;;25.15;14.30;;;;;;;18.42;100.00;97985.38;6229586;23;20031;-94
2022/08/14 02:31:40;;;;;;;26.30;14.35;;;;;;;18.54;100.00;97989.16;6233103;23;20008;-95
2022/08/14 02:34:09;;;;;;;26.73;14.45;;;;;;;18.67;100.00;97984.06;6214240;23;20448;-95
2022/08/14 02:36:39;;;;;;;28.92;14.70;;;;;;;18.49;100.00;97977.97;6215673;23;20036;-94
2022/08/14 02:39:09;;;;;;;22.92;13.30;;;;;;;18.34;100.00;97978.81;6218418;23;20016;-95
2022/08/14 02:41:35;;;;;;;21.58;13.35;;;;;;;18.16;100.00;97981.50;6233346;23;20018;-96
2022/08/14 02:44:05;;;;;;;24.73;14.70;;;;;;;18.29;100.00;97988.75;6223560;23;20016;-94
2022/08/14 02:46:31;;;;;;;24.23;14.27;;;;;;;18.36;100.00;97990.16;6214948;23;20004;-95
2022/08/14 02:48:57;;;;;;;23.73;15.20;;;;;;;18.05;100.00;97982.06;6213048;23;20024;-94
2022/08/14 02:51:23;;;;;;;26.50;15.02;;;;;;;18.13;100.00;97983.44;6211818;23;20091;-95
2022/08/14 02:53:49;;;;;;;27.98;14.82;;;;;;;18.20;100.00;97983.00;6211274;23;20064;-95
2022/08/14 02:56:18;;;;;;;22.50;13.48;;;;;;;18.34;100.00;97968.25;6211784;23;20098;-95
2022/08/14 02:58:48;;;;;;;24.52;13.95;;;;;;;18.35;100.00;97972.59;6212791;23;20015;-94
2022/08/14 03:01:16;;;;;;;22.65;13.32;;;;;;;18.25;100.00;97965.16;6213216;23;20023;-94
2022/08/14 03:03:43;;;;;;;24.95;14.82;;;;;;;18.38;100.00;97962.69;6213091;23;20013;-96
2022/08/14 03:06:10;;;;;;;26.45;15.68;;;;;;;18.46;100.00;97959.66;6211433;23;20017;-95
2022/08/14 03:08:37;;;;;;;24.00;14.52;;;;;;;18.44;100.00;97951.00;6213306;23;20431;-95
2022/08/14 03:11:08;;;;;;;27.48;16.67;;;;;;;18.31;100.00;97956.06;6211770;23;20019;-95
2022/08/14 03:13:46;;;;;;;27.55;16.60;;;;;;;18.53;100.00;97953.09;6214471;23;20005;-95
2022/08/14 03:16:15;;;;;;;26.00;14.63;;;;;;;18.71;100.00;97947.78;6213049;23;20615;-95
2022/08/14 03:18:43;;;;;;;27.73;16.08;;;;;;;18.80;100.00;97947.25;6210800;23;20078;-96
2022/08/14 03:21:12;;;;;;;29.70;17.77;;;;;;;18.67;100.00;97941.78;6211097;23;20016;-96
2022/08/14 03:23:43;;;;;;;29.25;16.13;;;;;;;18.60;100.00;97938.63;6212717;23;20007;-96
2022/08/14 03:26:13;;;;;;;29.85;17.70;;;;;;;18.58;100.00;97939.69;6211903;23;20027;-94
2022/08/14 03:28:41;;;;;;;31.45;17.83;;;;;;;18.57;100.00;97943.25;6212052;23;20008;-96
2022/08/14 03:31:08;;;;;;;27.92;16.25;;;;;;;18.45;100.00;97931.56;6211853;23;20083;-95
2022/08/14 03:33:36;;;;;;;29.77;17.67;;;;;;;18.83;100.00;97935.66;6210452;23;20493;-96
2022/08/14 03:36:11;;;;;;;28.40;17.00;;;;;;;19.08;100.00;97917.53;6211029;23;20024;-94
2022/08/14 03:38:41;;;;;;;30.00;17.38;;;;;;;19.06;100.00;97910.63;6212558;23;20021;-96
2022/08/14 03:41:17;;;;;;;33.38;17.63;;;;;;;18.32;100.00;97915.53;6211630;23;20005;-96
2022/08/14 03:43:47;;;;;;;33.33;19.17;;;;;;;18.10;100.00;97921.09;6216361;23;20083;-96
2022/08/14 03:46:13;;;;;;;35.50;19.50;;;;;;;18.10;100.00;97915.84;6214271;23;20019;-96
2022/08/14 03:48:40;;;;;;;35.72;19.25;;;;;;;18.30;100.00;97917.41;6213796;23;20009;-95
2022/08/14 03:51:08;;;;;;;33.25;18.38;;;;;;;18.21;100.00;97912.63;6214140;23;20015;-96
2022/08/14 03:53:36;;;;;;;33.90;19.40;;;;;;;18.19;100.00;97909.19;6213398;23;20074;-96
2022/08/14 03:56:06;;;;;;;29.55;18.02;;;;;;;18.05;100.00;97905.53;6213030;23;20047;-96
2022/08/14 03:58:32;;;;;;;33.50;18.17;;;;;;;17.89;100.00;97908.09;6212087;23;20022;-96
2022/08/14 04:00:59;;;;;;;34.00;18.73;;;;;;;17.89;100.00;97909.88;6212133;23;20008;-95
2022/08/14 04:03:25;;;;;;;35.30;21.15;;;;;;;17.74;100.00;97917.66;6214645;23;20035;-96
2022/08/14 04:05:52;;;;;;;33.58;19.23;;;;;;;17.86;100.00;97907.41;6239451;23;20166;-95
2022/08/14 04:08:19;;;;;;;31.92;18.42;;;;;;;17.69;100.00;97906.50;6218507;23;20098;-96
2022/08/14 04:10:45;;;;;;;36.85;21.02;;;;;;;17.77;100.00;97914.00;6217774;23;20081;-96
2022/08/14 04:13:11;;;;;;;32.67;18.98;;;;;;;17.76;100.00;97907.03;6244020;23;20050;-96
2022/08/14 04:15:36;;;;;;;35.30;21.15;;;;;;;17.80;100.00;97911.22;6218342;23;20034;-95
2022/08/14 04:18:08;;;;;;;39.67;21.90;;;;;;;17.74;100.00;97908.88;6219498;23;20814;-96
2022/08/14 04:20:39;;;;;;;36.53;21.90;;;;;;;17.93;100.00;97897.44;6217809;23;20015;-95
2022/08/14 04:23:08;;;;;;;35.22;21.92;;;;;;;17.85;100.00;97892.50;6245734;23;20379;-94
2022/08/14 04:25:36;;;;;;;37.33;21.70;;;;;;;17.58;100.00;97899.13;6218292;23;20031;-96
2022/08/14 04:28:06;;;;;;;37.50;22.25;;;;;;;17.68;100.00;97912.69;6218348;23;20434;-96
2022/08/14 04:30:37;;;;;;;42.53;21.27;;;;;;;17.77;100.00;97897.31;6219064;23;20000;-96
2022/08/14 04:33:04;;;;;;;39.42;21.83;;;;;;;17.61;100.00;97897.28;6218446;23;20090;-96
2022/08/14 04:35:30;;;;;;;33.63;20.38;;;;;;;17.63;100.00;97887.50;6218555;23;19996;-96
2022/08/14 04:43:37;;;;;;;33.85;20.50;;;;;;;17.66;100.00;97885.56;6246876;23;20015;-96
2022/08/14 04:46:12;;;;;;;33.75;20.75;;;;;;;17.71;100.00;97878.25;6220409;23;20000;-95
2022/08/14 04:48:38;;;;;;;37.08;21.65;;;;;;;17.67;100.00;97879.34;6231462;23;20018;-96
2022/08/14 04:51:06;;;;;;;33.83;19.70;;;;;;;17.54;100.00;97875.66;6264057;23;20034;-94
2022/08/14 04:53:36;;;;;;;37.15;21.63;;;;;;;17.73;100.00;97881.69;6233796;23;20004;-95
2022/08/14 04:56:03;;;;;;;32.15;20.08;;;;;;;17.64;100.00;97878.66;6222027;23;20023;-94
2022/08/14 04:58:31;;;;;;;35.85;21.92;;;;;;;17.67;100.00;97878.50;6219859;23;20012;-95
2022/08/14 05:00:57;;;;;;;37.22;20.70;;;;;;;17.82;100.00;97875.06;6229348;23;20019;-96
2022/08/14 05:03:30;;;;;;;36.78;22.13;;;;;;;17.74;100.00;97870.19;6238409;23;20002;-96
2022/08/14 05:05:57;;;;;;;31.60;19.97;;;;;;;17.67;100.00;97871.44;6224371;23;20473;-96
2022/08/14 05:08:23;;;;;;;33.85;21.05;;;;;;;17.67;100.00;97867.94;6220205;23;20711;-95
2022/08/14 05:10:52;;;;;;;33.72;20.88;;;;;;;17.54;100.00;97870.38;6218536;23;20008;-96
2022/08/14 05:13:21;;;;;;;34.92;20.70;;;;;;;17.78;100.00;97875.31;6244611;23;20030;-96
2022/08/14 05:15:47;;;;;;;36.80;20.92;;;;;;;17.39;100.00;97875.50;6218296;23;20046;-96
2022/08/14 05:18:15;;;;;;;33.38;19.55;;;;;;;17.71;100.00;97866.84;6218689;23;20485;-96
2022/08/14 05:20:44;;;;;;;36.72;20.23;;;;;;;17.66;100.00;97879.41;6244593;23;20405;-94
2022/08/14 05:23:13;;;;;;;40.85;20.70;;;;;;;17.67;100.00;97879.34;6218322;23;20065;-96
2022/08/14 05:25:40;;;;;;;41.78;23.17;;;;;;;18.01;100.00;97884.66;6218217;23;20004;-96
2022/08/14 05:28:10;;;;;;;34.80;21.05;;;;;;;18.08;100.00;97870.22;6217916;23;20000;-96
2022/08/14 05:30:37;;;;;;;37.38;20.80;;;;;;;18.10;100.00;97868.34;6217015;23;20105;-96
2022/08/14 05:33:04;;;;;;;35.22;19.50;;;;;;;18.12;100.00;97873.53;6217944;23;20423;-95
2022/08/14 05:35:31;;;;;;;34.53;21.50;;;;;;;18.18;100.00;97870.56;6217918;23;20020;-95
2022/08/14 05:37:58;;;;;;;37.47;22.63;;;;;;;18.10;100.00;97872.78;6216123;23;20004;-95
2022/08/14 05:40:24;;;;;;;37.75;23.58;;;;;;;18.18;100.00;97892.53;6243447;23;20375;-95
2022/08/14 05:42:49;;;;;;;40.53;23.98;;;;;;;18.26;100.00;97881.56;6216078;23;20028;-94
2022/08/14 05:45:16;;;;;;;33.78;21.88;;;;;;;18.61;100.00;97873.47;6212011;23;20079;-95
2022/08/14 05:47:42;;;;;;;40.17;24.05;;;;;;;18.44;100.00;97877.06;6213410;23;20016;-95
2022/08/14 05:50:12;;;;;;;42.13;23.33;;;;;;;18.38;100.00;97878.22;6240301;23;20004;-94
2022/08/14 05:52:37;;;;;;;41.80;23.90;;;;;;;18.52;100.00;97880.09;6214094;23;20016;-95
2022/08/14 05:55:04;;;;;;;36.90;22.30;;;;;;;18.58;100.00;97876.31;6211762;23;20079;-95
2022/08/14 05:57:30;;;;;;;41.03;22.98;;;;;;;18.79;100.00;97868.09;6215017;23;20091;-95
2022/08/14 05:59:56;;;;;;;41.45;23.90;;;;;;;18.85;100.00;97865.94;6211131;23;20003;-93
2022/08/14 06:02:21;;;;;;;36.47;22.35;;;;;;;18.87;100.00;97868.50;6238671;23;20070;-93
2022/08/14 06:04:47;;;;;;;37.83;22.92;;;;;;;19.01;100.00;97865.09;6209360;23;20024;-94
2022/08/14 06:07:16;;;;;;;36.80;22.52;;;;;;;19.16;100.00;97866.84;6207266;23;20008;-94
2022/08/14 06:09:42;;;;;;;37.55;22.17;;;;;;;19.38;100.00;97858.50;6209491;23;20066;-94
2022/08/14 06:12:08;;;;;;;38.38;22.50;;;;;;;19.43;100.00;97853.81;6207995;23;20427;-94
2022/08/14 06:14:36;;;;;;;38.40;23.15;;;;;;;19.67;100.00;97850.63;6206928;23;20580;-95
2022/08/14 06:17:01;;;;;;;35.67;22.55;;;;;;;19.54;100.00;97844.34;6207401;23;20011;-95
2022/08/14 06:19:27;;;;;;;36.50;23.30;;;;;;;19.40;100.00;97845.19;6206382;23;20017;-96
2022/08/14 06:21:52;;;;;;;34.85;22.83;;;;;;;19.73;100.00;97846.75;6207548;23;20012;-93
2022/08/14 06:24:19;;;;;;;35.80;22.60;;;;;;;19.65;100.00;97839.25;6206021;23;20497;-94
2022/08/14 06:26:45;;;;;;;38.05;23.48;;;;;;;19.60;100.00;97842.19;6210490;23;20062;-95
2022/08/14 06:30:08;;;;;;;38.22;22.42;;;;;;;19.63;100.00;97841.16;6210496;23;20001;-94
2022/08/14 06:32:35;;;;;;;34.40;21.65;;;;;;;19.69;100.00;97826.72;6208175;23;20752;-94
2022/08/14 06:35:01;;;;;;;34.78;21.80;;;;;;;19.60;100.00;97821.03;6209033;23;20648;-94
2022/08/14 06:37:43;;;;;;;36.50;22.80;;;;;;;19.35;100.00;97826.13;6209592;23;20390;-94
2022/08/14 06:40:12;;;;;;;35.45;22.85;;;;;;;19.51;100.00;97826.03;6208814;23;20008;-94
2022/08/14 06:42:38;;;;;;;36.83;21.42;;;;;;;19.84;100.00;97817.03;6211390;23;20231;-94
2022/08/14 06:45:05;;;;;;;35.35;21.35;;;;;;;19.35;100.00;97821.69;6209403;23;20493;-94
2022/08/14 06:47:39;;;;;;;32.67;20.45;;;;;;;19.55;100.00;97819.63;6211692;23;20374;-96
2022/08/14 06:50:07;;;;;;;37.42;21.33;;;;;;;19.74;100.00;97814.06;6209165;23;20036;-92
2022/08/14 06:52:33;;;;;;;35.00;21.67;;;;;;;19.65;100.00;97820.75;6213506;23;20009;-94
2022/08/14 06:54:59;;;;;;;32.35;20.85;;;;;;;19.54;100.00;97825.84;6212458;23;20008;-95
2022/08/14 06:57:33;;;;;;;37.05;21.50;;;;;;;19.80;100.00;97815.50;6212932;23;20013;-96
2022/08/14 06:59:59;;;;;;;37.47;21.77;;;;;;;19.90;100.00;97819.28;6213219;23;20020;-95
2022/08/14 07:07:53;;;;;;;37.78;21.55;;;;;;;20.05;100.00;97815.66;6246749;23;20046;-96
2022/08/14 07:10:21;;;;;;;38.38;21.60;;;;;;;20.04;100.00;97819.28;6221748;23;20012;-95
2022/08/14 07:12:46;;;;;;;33.58;21.40;;;;;;;20.13;100.00;97810.75;6238326;23;20023;-96
2022/08/14 07:15:13;;;;;;;35.70;21.35;;;;;;;19.77;100.00;97821.81;6234647;23;20012;-96
2022/08/14 07:17:46;;;;;;;37.40;22.67;;;;;;;19.99;100.00;97824.00;6224280;23;20014;-96
2022/08/14 07:20:12;;;;;;;37.88;21.48;;;;;;;20.28;100.00;97816.88;6248079;23;20030;-96
2022/08/14 07:22:38;;;;;;;35.83;20.52;;;;;;;20.16;100.00;97822.94;6233300;23;20056;-96
2022/08/14 07:25:04;;;;;;;35.50;20.98;;;;;;;20.90;100.00;97812.88;6240680;23;20031;-95
2022/08/14 07:27:30;;;;;;;36.05;20.42;;;;;;;20.37;100.00;97814.59;6227436;23;20123;-95
2022/08/14 07:29:57;;;;;;;32.17;19.58;;;;;;;20.73;100.00;97815.81;6244705;23;20020;-96
2022/08/14 07:32:22;;;;;;;32.75;19.40;;;;;;;20.84;100.00;97817.78;6222059;23;20241;-96
2022/08/14 07:34:48;;;;;;;30.83;18.90;;;;;;;20.95;100.00;97809.94;6216913;23;20030;-96
2022/08/14 07:37:14;;;;;;;29.05;18.45;;;;;;;21.00;100.00;97801.69;6217828;23;20037;-96
2022/08/14 07:39:48;;;;;;;27.65;17.90;;;;;;;20.89;100.00;97813.00;6247795;22;20326;-96
2022/08/14 07:42:30;;;;;;;29.70;16.95;;;;;;;21.00;100.00;97799.03;6243302;23;20020;-96
2022/08/14 07:44:56;;;;;;;29.92;18.08;;;;;;;20.97;100.00;97818.63;6119090;23;20025;-89
2022/08/14 07:47:21;;;;;;;30.02;18.73;;;;;;;21.12;100.00;97807.00;6116818;23;20496;-90
2022/08/14 07:49:59;;;;;;;29.92;17.95;;;;;;;21.06;100.00;97818.03;6091078;23;20564;-90
2022/08/14 07:52:25;;;;;;;30.48;17.85;;;;;;;21.06;100.00;97809.25;6114840;23;20781;-90
2022/08/14 07:54:52;;;;;;;26.77;16.33;;;;;;;21.14;100.00;97810.41;6115180;23;20149;-89
2022/08/14 07:57:17;;;;;;;26.73;16.67;;;;;;;21.14;100.00;97807.75;6112639;23;20006;-89
2022/08/14 07:59:43;;;;;;;31.30;17.27;;;;;;;20.83;100.00;97811.59;6117533;23;20018;-90
2022/08/14 08:02:16;;;;;;;23.30;15.00;;;;;;;21.01;100.00;97812.19;6087162;23;20014;-90
2022/08/14 08:04:45;;;;;;;26.15;15.63;;;;;;;20.94;100.00;97800.28;6090787;23;20002;-89
2022/08/14 08:07:12;;;;;;;22.42;14.40;;;;;;;21.02;100.00;97808.59;6088351;23;20033;-89
2022/08/14 08:09:43;;;;;;;24.88;15.00;;;;;;;21.09;100.00;97804.56;6088334;23;20018;-90
2022/08/14 08:12:10;;;;;;;22.02;13.73;;;;;;;21.43;100.00;97810.25;6113137;23;20061;-90
2022/08/14 08:14:36;;;;;;;24.00;13.98;;;;;;;21.01;100.00;97811.34;6088980;23;20009;-89
2022/08/14 08:17:03;;;;;;;23.42;12.52;;;;;;;21.08;100.00;97810.81;6089340;23;20034;-89
2022/08/14 08:19:30;;;;;;;18.92;12.95;;;;;;;21.31;100.00;97803.13;6116262;23;20752;-90
2022/08/14 08:21:57;;;;;;;23.10;13.57;;;;;;;21.17;100.00;97801.41;6091647;23;20001;-89
2022/08/14 08:24:23;;;;;;;25.20;13.43;;;;;;;21.34;100.00;97802.91;6090809;23;20009;-88
2022/08/14 08:26:49;;;;;;;24.27;13.05;;;;;;;21.54;100.00;97790.09;6115751;23;20843;-90
2022/08/14 08:29:23;;;;;;;22.25;13.75;;;;;;;21.55;100.00;97786.50;6116371;23;20021;-88
2022/08/14 08:31:50;;;;;;;21.70;12.13;;;;;;;21.71;100.00;97776.50;6116016;23;20042;-88
2022/08/14 08:34:16;;;;;;;25.13;13.13;;;;;;;21.75;100.00;97778.00;6088823;23;20686;-88
2022/08/14 08:36:42;;;;;;;23.33;12.27;;;;;;;21.65;100.00;97783.06;6115792;23;20009;-88
2022/08/14 08:39:09;;;;;;;20.08;11.55;;;;;;;22.03;100.00;97770.69;6118871;23;20024;-88
2022/08/14 08:41:46;;;;;;;18.48;10.95;;;;;;;21.95;100.00;97767.78;6092965;23;20069;-89
2022/08/14 08:44:13;;;;;;;17.58;9.25;;;;;;;22.29;100.00;97760.84;6096903;23;20030;-89
2022/08/14 08:46:41;;;;;;;20.30;11.23;;;;;;;22.22;100.00;97764.91;6089806;23;20013;-89
2022/08/14 08:49:07;;;;;;;17.17;9.02;;;;;;;22.50;100.00;97768.22;6085640;23;20073;-88
2022/08/14 08:51:40;;;;;;;16.23;8.65;;;;;;;22.00;100.00;97762.97;6063981;23;20010;-89
2022/08/14 08:54:12;;;;;;;14.10;7.80;;;;;;;22.50;100.00;97760.25;6088720;23;20038;-89
2022/08/14 08:56:44;;;;;;;15.98;8.80;;;;;;;23.00;100.00;97758.25;6088649;23;20007;-88
2022/08/14 08:59:24;;;;;;;14.30;8.93;;;;;;;22.97;100.00;97757.66;6088265;23;20012;-88
2022/08/14 09:01:56;;;;;;;17.10;9.45;;;;;;;22.72;100.00;97764.00;6059628;23;20089;-88
2022/08/14 09:04:26;;;;;;;15.57;7.80;;;;;;;22.81;100.00;97758.84;6088147;23;20010;-89
2022/08/14 09:06:52;;;;;;;15.50;8.40;;;;;;;23.02;100.00;97764.34;6090661;23;20051;-90
2022/08/14 09:09:26;;;;;;;16.55;8.35;;;;;;;23.02;100.00;97761.66;6087914;23;20079;-88
2022/08/14 09:11:54;;;;;;;15.00;7.88;;;;;;;23.39;100.00;97762.50;6063894;23;20020;-89
2022/08/14 09:14:28;;;;;;;14.00;7.68;;;;;;;23.05;100.00;97763.25;6057694;23;20330;-88
2022/08/14 09:16:55;;;;;;;14.27;8.15;;;;;;;23.11;100.00;97757.44;6086772;23;20010;-89
2022/08/14 09:19:21;;;;;;;13.98;6.97;;;;;;;23.91;100.00;97757.56;6088627;23;20010;-87
2022/08/14 09:21:46;;;;;;;13.80;7.35;;;;;;;23.90;100.00;97751.41;6087087;23;20034;-88
2022/08/14 09:24:12;;;;;;;13.75;7.80;;;;;;;23.22;100.00;97750.50;6062485;23;20511;-90
2022/08/14 09:26:40;;;;;;;14.18;7.60;;;;;;;23.32;100.00;97754.13;6086942;23;20456;-89
2022/08/14 09:29:07;;;;;;;15.23;7.75;;;;;;;23.42;100.00;97746.28;6087351;23;20006;-88
2022/08/14 09:31:34;;;;;;;17.38;7.05;;;;;;;24.12;100.00;97742.53;6091742;23;20010;-90
2022/08/14 09:34:35;;;;;;;16.35;7.03;;;;;;;24.32;100.00;97746.22;6102265;23;20026;-90
2022/08/14 09:37:39;;;;;;;15.20;7.40;;;;;;;24.44;100.00;97749.72;6018812;23;20027;-88
2022/08/14 09:40:13;;;;;;;;;;;;;;;24.66;100.00;97745.28;5978170;24;20441;-88
2022/08/14 09:43:06;;;;;;;14.68;7.60;;;;;;;24.89;100.00;97746.03;5978845;23;20045;-89
2022/08/14 09:45:43;;;;;;;12.43;5.88;;;;;;;24.92;100.00;97742.28;6019498;23;20014;-90
2022/08/14 09:48:23;;;;;;;11.45;4.97;;;;;;;24.85;100.00;97736.59;6008960;23;20062;-88
2022/08/14 09:50:53;;;;;;;10.25;5.05;;;;;;;24.91;100.00;97733.41;6002613;23;20007;-89
2022/08/14 09:53:40;;;;;;;10.23;5.07;;;;;;;24.92;100.00;97732.44;5998491;23;20015;-89
2022/08/14 09:56:07;;;;;;;10.40;4.93;;;;;;;24.87;100.00;97723.97;5999016;23;20028;-89
2022/08/14 09:58:45;;;;;;;11.52;5.18;;;;;;;24.90;100.00;97717.53;5997894;23;20022;-89
2022/08/14 10:01:14;;;;;;;12.20;5.45;;;;;;;25.51;100.00;97711.44;5996636;23;20012;-89
2022/08/14 10:03:51;;;;;;;17.75;6.15;;;;;;;24.98;100.00;97715.06;5975321;23;20012;-88
2022/08/14 10:06:28;;;;;;;10.27;4.80;;;;;;;26.08;100.00;97706.44;5997953;23;20016;-89
2022/08/14 10:09:03;;;;;;;12.30;4.15;;;;;;;26.26;100.00;97708.47;5973366;23;20667;-89
2022/08/14 10:11:37;;;;;;;10.45;4.60;;;;;;;26.06;100.00;97706.59;5997343;23;20015;-89
2022/08/14 10:14:15;;;;;;;8.23;3.70;;;;;;;26.13;100.00;97704.22;6046356;23;20447;-89
2022/08/14 10:16:47;;;;;;;9.85;3.83;;;;;;;26.22;100.00;97703.41;6060550;23;20018;-88
2022/08/14 10:19:14;;;;;;;10.32;4.07;;;;;;;26.94;100.00;97708.47;6089018;23;20117;-88
2022/08/14 10:22:07;;;;;;;9.50;3.58;;;;;;;26.58;100.00;97702.84;6083860;23;20010;-89
2022/08/14 10:24:38;;;;;;;12.20;3.88;;;;;;;27.72;100.00;97705.56;6086556;23;20006;-89
2022/08/14 10:27:15;;;;;;;9.45;3.45;;;;;;;28.75;100.00;97696.47;6088470;23;20006;-89
2022/08/14 10:29:43;;;;;;;9.43;3.42;;;;;;;29.28;100.00;97695.53;6059803;23;20018;-88
2022/08/14 10:32:10;;;;;;;10.38;4.57;;;;;;;29.56;100.00;97698.03;6085895;23;20011;-88
2022/08/14 10:34:41;;;;;;;11.57;4.65;;;;;;;28.92;100.00;97694.75;6085739;23;20045;-88
2022/08/14 10:37:12;;;;;;;9.68;3.67;;;;;;;28.58;100.00;97690.09;6087419;23;20030;-88
2022/08/14 10:39:40;;;;;;;8.50;3.72;;;;;;;28.26;100.00;97686.94;6088591;23;20006;-88
2022/08/14 10:42:13;;;;;;;10.57;3.55;;;;;;;26.68;100.00;97687.66;6060873;23;20006;-89
2022/08/14 10:44:47;;;;;;;10.50;3.67;;;;;;;26.59;100.00;97685.81;6107827;23;20072;-88
2022/08/14 10:47:14;;;;;;;10.02;4.03;;;;;;;26.94;100.00;97675.53;6115087;23;20010;-88
2022/08/14 10:49:54;;;;;;;10.40;4.47;;;;;;;27.06;100.00;97669.88;6116927;23;20340;-88
2022/08/14 10:52:24;;;;;;;11.05;4.28;;;;;;;27.16;100.00;97672.50;6116017;23;20065;-88
2022/08/14 10:54:51;;;;;;;12.30;4.22;;;;;;;26.74;100.00;97673.72;6116588;23;20008;-88
2022/08/14 10:57:21;;;;;;;13.13;4.65;;;;;;;26.41;100.00;97666.97;6115666;23;20488;-88
2022/08/14 10:59:48;;;;;;;10.13;5.00;;;;;;;27.64;100.00;97676.03;6113222;23;20072;-88
2022/08/14 11:02:38;;;;;;;13.07;5.68;;;;;;;28.33;100.00;97667.56;6140834;23;20404;-88
2022/08/14 11:05:12;;;;;;;10.27;4.82;;;;;;;27.90;100.00;97667.28;6116835;23;20014;-88
2022/08/14 11:07:41;;;;;;;11.70;5.78;;;;;;;27.91;100.00;97668.97;6115712;23;20006;-90
2022/08/14 11:10:12;;;;;;;13.30;5.68;;;;;;;28.14;100.00;97664.03;6116657;23;20014;-87
2022/08/14 11:13:05;;;;;;;11.25;5.80;;;;;;;28.07;100.00;97663.81;6116210;23;20029;-87
2022/08/14 11:15:31;;;;;;;13.43;5.85;;;;;;;27.61;100.00;97665.59;6114172;23;20083;-88
2022/08/14 11:17:57;;;;;;;13.98;5.53;;;;;;;28.24;100.00;97663.94;6114622;23;20411;-88
2022/08/14 11:20:25;;;;;;;15.23;6.82;;;;;;;27.83;100.00;97660.84;6116379;23;20014;-88
2022/08/14 11:22:53;;;;;;;13.60;6.35;;;;;;;28.35;100.00;97657.53;6117931;23;20073;-87
2022/08/14 11:25:22;;;;;;;13.07;6.25;;;;;;;28.29;100.00;97653.63;6112076;23;20014;-89
2022/08/14 11:27:49;;;;;;;15.18;6.97;;;;;;;27.77;100.00;97659.59;6116223;23;20116;-89
2022/08/14 11:30:19;;;;;;;15.18;6.25;;;;;;;27.66;100.00;97657.13;6119697;23;20037;-89
2022/08/14 11:32:49;;;;;;;15.13;6.30;;;;;;;27.78;100.00;97647.91;6129214;23;20029;-92
2022/08/14 11:35:23;;;;;;;12.50;6.53;;;;;;;27.47;100.00;97645.50;6133776;23;19990;-88